Time;durP1;ratioP1;P1;durP2;ratioP2;P2;SDS_P1;SDS_P2;PMS_P1;PMS_P2;Temp;Humidity;BMP_temperature;BMP_pressure;BME280_temperature;BME280_humidity;BME280_pressure;Samples;Min_cycle;Max_cycle;Signal;HPM_P1;HPM_P2
2022/12/28 00:01:32;;;;;;;8.50;2.17;;;;;;;7.12;63.33;99889.25;5030760;28;20057;-80
2022/12/28 00:04:00;;;;;;;4.93;2.20;;;;;;;7.17;65.18;99889.91;5013776;28;20518;-80
2022/12/28 00:06:27;;;;;;;7.78;1.83;;;;;;;7.18;65.57;99880.31;5031012;28;20148;-79
2022/12/28 00:08:55;;;;;;;4.55;2.03;;;;;;;7.20;65.85;99869.75;5013436;28;20053;-79
2022/12/28 00:11:24;;;;;;;7.97;2.30;;;;;;;7.20;65.70;99870.59;5046553;28;20095;-80
2022/12/28 00:13:58;;;;;;;5.82;2.17;;;;;;;7.21;65.77;99858.38;5049950;28;20115;-80
2022/12/28 00:16:26;;;;;;;10.15;2.40;;;;;;;7.21;65.38;99847.91;5050600;28;20544;-80
2022/12/28 00:18:54;;;;;;;7.95;1.98;;;;;;;7.22;65.88;99858.28;5050936;28;20487;-80
2022/12/28 00:21:21;;;;;;;11.10;2.60;;;;;;;7.25;65.92;99829.38;5050792;28;20056;-80
2022/12/28 00:23:52;;;;;;;5.72;1.90;;;;;;;7.22;65.10;99826.03;5050873;28;20095;-80
2022/12/28 00:26:23;;;;;;;5.13;2.20;;;;;;;7.26;65.74;99825.00;5033360;28;20056;-79
2022/12/28 00:28:49;;;;;;;6.65;1.95;;;;;;;7.27;65.84;99810.97;5050366;28;20092;-79
2022/12/28 00:31:15;;;;;;;4.95;1.73;;;;;;;7.28;66.29;99810.06;5050801;28;20087;-79
2022/12/28 00:33:42;;;;;;;8.70;2.15;;;;;;;7.30;65.79;99805.63;5050667;28;20053;-79
2022/12/28 00:36:11;;;;;;;6.13;2.00;;;;;;;7.30;65.53;99810.88;5050540;28;20060;-80
2022/12/28 00:38:38;;;;;;;7.28;1.48;;;;;;;7.33;65.88;99802.84;5032338;28;20053;-79
2022/12/28 00:41:06;;;;;;;5.65;1.50;;;;;;;7.35;65.84;99813.25;5050420;28;20106;-79
2022/12/28 00:43:33;;;;;;;7.28;1.90;;;;;;;7.33;65.46;99809.88;5050462;28;20049;-79
2022/12/28 00:45:59;;;;;;;8.60;2.08;;;;;;;7.34;65.92;99806.34;5032708;28;20049;-79
2022/12/28 00:48:26;;;;;;;6.97;1.88;;;;;;;7.37;65.76;99812.28;5050126;28;20072;-79
2022/12/28 00:50:59;;;;;;;4.63;1.40;;;;;;;7.39;65.92;99813.09;5049895;28;20503;-78
2022/12/28 00:53:25;;;;;;;5.72;1.73;;;;;;;7.44;66.00;99820.72;5050083;28;20427;-79
2022/12/28 00:55:52;;;;;;;6.53;1.90;;;;;;;7.44;65.77;99810.25;5031880;28;20511;-79
2022/12/28 00:58:18;;;;;;;6.47;1.58;;;;;;;7.47;65.65;99807.50;5050009;28;20088;-79
2022/12/28 01:00:44;;;;;;;4.55;1.75;;;;;;;7.47;65.88;99798.81;5049675;28;20085;-80
2022/12/28 01:03:11;;;;;;;5.63;1.77;;;;;;;7.49;65.73;99789.97;5050159;28;20063;-80
2022/12/28 01:05:38;;;;;;;5.40;1.60;;;;;;;7.47;65.99;99786.56;5049672;28;20053;-80
2022/12/28 01:08:04;;;;;;;8.70;1.60;;;;;;;7.45;65.60;99779.69;5049436;28;20057;-79
2022/12/28 01:10:31;;;;;;;6.35;1.80;;;;;;;7.42;66.29;99778.91;5049796;28;20109;-79
2022/12/28 01:12:57;;;;;;;5.13;1.60;;;;;;;7.40;66.35;99791.22;5049719;28;20053;-80
2022/12/28 01:15:24;;;;;;;3.53;1.70;;;;;;;7.37;66.49;99786.09;5049816;28;20053;-79
2022/12/28 01:17:50;;;;;;;4.97;1.60;;;;;;;7.35;66.89;99789.69;5049233;28;20793;-79
2022/12/28 01:20:16;;;;;;;4.53;1.50;;;;;;;7.32;67.15;99779.38;5049814;28;20095;-80
2022/12/28 01:22:43;;;;;;;5.18;1.92;;;;;;;7.29;67.29;99772.50;5049393;28;20080;-80
2022/12/28 01:25:09;;;;;;;10.18;2.70;;;;;;;7.25;67.70;99752.59;5049342;28;20071;-79
2022/12/28 01:27:35;;;;;;;8.05;2.00;;;;;;;7.23;67.47;99742.19;5049471;28;20071;-79
2022/12/28 01:30:02;;;;;;;8.65;2.28;;;;;;;7.21;67.85;99724.88;5049538;28;20073;-79
2022/12/28 01:32:28;;;;;;;5.30;1.90;;;;;;;7.19;68.33;99734.53;5049729;28;20503;-79
2022/12/28 01:34:55;;;;;;;7.28;1.83;;;;;;;7.18;68.09;99728.47;5049019;28;20053;-79
2022/12/28 01:37:21;;;;;;;7.00;1.85;;;;;;;7.18;68.74;99718.00;5049207;28;20127;-79
2022/12/28 01:39:48;;;;;;;4.88;1.35;;;;;;;7.15;68.78;99718.94;5049386;28;20069;-79
2022/12/28 01:42:16;;;;;;;5.20;1.60;;;;;;;7.14;68.91;99704.16;5049547;28;20083;-79
2022/12/28 01:44:45;;;;;;;10.27;2.25;;;;;;;7.18;68.98;99712.75;5049183;28;20080;-79
2022/12/28 01:47:34;;;;;;;4.80;1.77;;;;;;;7.14;69.10;99704.16;5031319;28;20056;-79
2022/12/28 01:50:08;;;;;;;5.25;1.85;;;;;;;7.17;69.11;99706.66;5049284;28;20114;-78
2022/12/28 01:52:36;;;;;;;4.28;1.75;;;;;;;7.19;69.11;99696.13;5049557;28;20177;-79
2022/12/28 01:55:06;;;;;;;8.50;1.75;;;;;;;7.18;69.30;99683.97;5031356;28;20497;-79
2022/12/28 01:57:38;;;;;;;3.50;2.03;;;;;;;7.19;69.05;99679.56;5048622;28;20061;-79
2022/12/28 02:00:09;;;;;;;5.78;1.80;;;;;;;7.17;69.27;99680.47;5049121;28;20088;-79
2022/12/28 02:02:37;;;;;;;3.00;1.88;;;;;;;7.20;69.51;99676.00;5146372;22;20180;-86
2022/12/28 02:05:04;;;;;;;4.93;2.00;;;;;;;7.21;69.34;99664.66;5029996;28;20092;-85
2022/12/28 02:07:41;;;;;;;8.30;2.15;;;;;;;7.16;69.65;99655.22;5030108;28;20079;-86
2022/12/28 02:10:09;;;;;;;5.30;1.80;;;;;;;7.19;69.79;99650.75;5012987;28;20054;-82
2022/12/28 02:12:56;;;;;;;4.13;2.45;;;;;;;7.20;69.86;99660.31;5015446;28;20061;-86
2022/12/28 02:15:23;;;;;;;4.32;1.58;;;;;;;7.20;69.96;99648.09;5030075;28;20057;-85
2022/12/28 02:17:49;;;;;;;8.38;2.00;;;;;;;7.18;69.87;99642.06;5012443;28;20141;-85
2022/12/28 02:20:16;;;;;;;4.82;2.03;;;;;;;7.17;70.14;99637.72;5030034;28;20084;-81
2022/12/28 02:22:58;;;;;;;8.10;2.50;;;;;;;7.14;71.00;99619.56;5030065;28;20049;-86
2022/12/28 02:25:52;;;;;;;11.02;2.17;;;;;;;7.13;70.86;99626.56;5030187;28;20057;-84
2022/12/28 02:28:37;;;;;;;6.55;1.95;;;;;;;7.15;70.57;99603.78;5029763;28;20621;-83
2022/12/28 02:31:31;;;;;;;7.78;2.50;;;;;;;7.12;71.18;99600.44;5030120;28;20046;-86
2022/12/28 02:34:15;;;;;;;5.97;1.70;;;;;;;7.12;70.85;99590.84;5029852;28;20505;-84
2022/12/28 02:36:49;;;;;;;9.82;2.08;;;;;;;7.12;70.98;99603.94;5030052;28;20087;-86
2022/12/28 02:39:24;;;;;;;6.07;1.80;;;;;;;7.10;71.00;99574.34;5033759;28;20144;-84
2022/12/28 02:41:51;;;;;;;4.78;1.83;;;;;;;7.11;71.03;99575.19;5033754;28;20104;-85
2022/12/28 02:50:04;;;;;;;5.57;2.03;;;;;;;7.12;71.21;99555.97;5015989;28;20049;-83
2022/12/28 02:50:08;;;;;;;7.10;1.90;;;;;;;7.15;71.27;99555.81;5033426;28;20613;-84
2022/12/28 02:52:50;;;;;;;6.00;2.30;;;;;;;7.13;71.66;99561.13;5033658;28;20136;-86
2022/12/28 02:56:07;;;;;;;5.50;2.13;;;;;;;7.14;71.88;99548.91;5033401;28;20045;-83
2022/12/28 02:58:57;;;;;;;5.32;1.73;;;;;;;7.15;71.73;99534.88;5033363;28;20057;-86
2022/12/28 03:02:05;;;;;;;9.55;2.10;;;;;;;7.16;71.77;99537.44;5033123;28;20072;-83
2022/12/28 03:04:53;;;;;;;3.05;1.60;;;;;;;7.16;71.70;99524.34;5016187;28;20061;-86
2022/12/28 03:10:22;;;;;;;4.55;1.80;;;;;;;7.25;71.74;99535.31;5033570;28;20049;-87
2022/12/28 03:13:41;;;;;;;4.78;2.33;;;;;;;7.25;71.68;99520.44;5033125;28;20104;-87
2022/12/28 03:15:56;;;;;;;5.10;1.67;;;;;;;7.30;71.69;99517.59;5032755;28;20083;-86
2022/12/28 03:32:24;;;;;;;3.58;1.58;;;;;;;7.49;71.62;99483.53;5032752;28;20054;-87
2022/12/28 03:34:51;;;;;;;4.00;1.63;;;;;;;7.52;71.62;99475.50;5015036;28;20477;-85
2022/12/28 03:37:33;;;;;;;4.88;1.98;;;;;;;7.50;70.94;99463.41;5032786;28;20049;-86
2022/12/28 03:40:35;;;;;;;2.95;1.95;;;;;;;7.52;71.33;99472.88;5032504;28;20054;-83
2022/12/28 03:46:16;;;;;;;9.05;2.22;;;;;;;7.61;71.32;99455.03;5032812;28;20111;-88
2022/12/28 03:48:44;;;;;;;8.70;2.33;;;;;;;7.65;71.53;99469.66;5014826;28;20073;-86
2022/12/28 03:51:13;;;;;;;6.05;2.33;;;;;;;7.65;71.18;99441.72;5014640;28;20139;-86
2022/12/28 03:53:42;;;;;;;7.60;1.92;;;;;;;7.67;71.34;99431.97;5032603;28;20119;-87
2022/12/28 03:56:26;;;;;;;5.47;1.73;;;;;;;7.64;71.09;99447.88;5031617;28;20136;-81
2022/12/28 03:58:54;;;;;;;4.57;1.65;;;;;;;7.68;71.18;99435.47;5029321;28;20081;-84
2022/12/28 04:01:20;;;;;;;5.82;2.03;;;;;;;7.68;71.63;99428.47;5032341;28;20053;-85
2022/12/28 04:03:47;;;;;;;3.63;1.75;;;;;;;7.68;71.55;99423.22;5031822;28;20057;-83
2022/12/28 04:06:16;;;;;;;7.30;1.73;;;;;;;7.68;71.59;99422.38;5031768;28;20057;-82
2022/12/28 04:08:44;;;;;;;4.95;1.80;;;;;;;7.71;71.79;99410.88;5031901;28;20148;-87
2022/12/28 04:11:11;;;;;;;3.95;1.83;;;;;;;7.72;71.93;99407.31;5032182;28;20061;-86
2022/12/28 04:13:38;;;;;;;6.45;2.28;;;;;;;7.72;72.00;99389.00;5031646;28;20060;-87
2022/12/28 04:16:11;;;;;;;4.43;2.30;;;;;;;7.72;71.83;99396.84;5029651;28;20467;-85
2022/12/28 04:18:38;;;;;;;5.57;2.47;;;;;;;7.75;72.16;99386.22;5030747;28;20085;-86
2022/12/28 04:21:05;;;;;;;5.20;2.30;;;;;;;7.79;72.05;99398.25;5031799;28;20057;-86
2022/12/28 04:23:31;;;;;;;6.38;2.28;;;;;;;7.79;72.12;99400.84;5031273;28;20081;-83
2022/12/28 04:26:01;;;;;;;5.57;1.92;;;;;;;7.78;72.19;99405.25;5031580;28;20475;-87
2022/12/28 04:28:28;;;;;;;4.35;2.38;;;;;;;7.80;72.34;99399.94;5013797;28;20061;-85
2022/12/28 04:30:55;;;;;;;3.15;1.92;;;;;;;7.80;72.27;99392.94;5031764;28;20053;-86
2022/12/28 04:33:22;;;;;;;6.05;2.58;;;;;;;7.81;72.42;99383.28;5031603;28;20487;-86
2022/12/28 04:35:49;;;;;;;3.60;2.10;;;;;;;7.80;72.59;99384.22;5031349;28;20092;-84
2022/12/28 04:38:16;;;;;;;4.95;2.40;;;;;;;7.80;72.76;99377.19;5013995;28;20071;-86
2022/12/28 04:40:43;;;;;;;5.28;2.90;;;;;;;7.80;73.00;99378.97;5013737;28;20097;-83
2022/12/28 04:43:10;;;;;;;3.53;2.17;;;;;;;7.77;73.05;99369.50;5031569;28;20057;-86
2022/12/28 04:45:37;;;;;;;5.18;2.45;;;;;;;7.77;73.19;99364.25;5013425;28;20056;-85
2022/12/28 04:48:03;;;;;;;6.13;2.88;;;;;;;7.77;73.32;99373.88;5031088;28;20152;-86
2022/12/28 04:50:30;;;;;;;6.65;2.80;;;;;;;7.75;73.47;99370.50;5031311;28;20053;-84
2022/12/28 04:52:58;;;;;;;6.05;2.75;;;;;;;7.75;73.71;99362.63;5031571;28;20068;-84
2022/12/28 04:55:24;;;;;;;4.38;2.65;;;;;;;7.76;74.03;99372.19;5031136;28;20057;-83
2022/12/28 04:57:59;;;;;;;5.68;3.33;;;;;;;7.74;74.35;99361.78;5030656;28;20059;-83
2022/12/28 05:00:25;;;;;;;5.68;3.00;;;;;;;7.76;74.50;99362.56;5030944;28;20097;-82
2022/12/28 05:02:52;;;;;;;4.70;3.22;;;;;;;7.77;74.48;99351.16;5013168;28;20084;-79
2022/12/28 05:05:19;;;;;;;4.93;3.20;;;;;;;7.75;74.94;99350.41;5030863;28;20461;-83
2022/12/28 05:07:45;;;;;;;3.15;2.85;;;;;;;7.80;74.77;99360.63;5030694;28;20556;-82
2022/12/28 05:10:12;;;;;;;6.50;3.42;;;;;;;7.79;75.52;99351.06;5031311;28;20057;-82
2022/12/28 05:12:38;;;;;;;4.43;3.63;;;;;;;7.81;75.65;99357.06;5013336;28;20057;-82
2022/12/28 05:15:06;;;;;;;4.63;3.33;;;;;;;7.85;75.62;99349.91;5030986;28;20143;-82
2022/12/28 05:17:32;;;;;;;4.63;3.67;;;;;;;7.85;75.98;99340.25;5013237;28;20053;-82
2022/12/28 05:19:59;;;;;;;4.00;3.58;;;;;;;7.88;75.79;99326.16;5030780;28;20069;-80
2022/12/28 05:22:26;;;;;;;4.38;3.97;;;;;;;7.88;76.06;99340.09;5013366;28;20053;-81
2022/12/28 05:24:52;;;;;;;6.50;3.35;;;;;;;7.91;76.23;99360.94;5030238;28;20049;-82
2022/12/28 05:27:19;;;;;;;5.65;3.72;;;;;;;7.95;75.81;99345.88;5030681;28;20174;-81
2022/12/28 05:29:46;;;;;;;3.85;3.42;;;;;;;7.97;76.09;99341.41;5030689;28;20092;-82
2022/12/28 05:32:12;;;;;;;4.13;3.60;;;;;;;7.98;76.34;99357.97;5030927;28;20140;-81
2022/12/28 05:34:39;;;;;;;4.05;3.65;;;;;;;7.98;76.62;99339.63;5030509;28;20071;-82
2022/12/28 05:37:05;;;;;;;5.00;4.13;;;;;;;8.00;76.58;99337.78;5030210;28;20053;-82
2022/12/28 05:39:32;;;;;;;6.43;3.75;;;;;;;8.02;76.40;99321.03;5030650;28;20056;-83
2022/12/28 05:41:59;;;;;;;6.45;4.10;;;;;;;8.04;76.05;99329.66;5030644;28;20057;-81
2022/12/28 05:44:26;;;;;;;5.05;3.47;;;;;;;8.05;76.30;99334.00;5013123;28;20067;-81
2022/12/28 05:46:52;;;;;;;4.60;3.60;;;;;;;8.05;76.59;99347.09;5030214;28;20212;-80
2022/12/28 05:49:19;;;;;;;6.60;3.65;;;;;;;8.05;76.63;99328.75;5030659;28;20050;-81
2022/12/28 05:51:50;;;;;;;6.07;3.38;;;;;;;8.08;77.01;99348.69;5013078;28;20088;-81
2022/12/28 05:54:17;;;;;;;4.13;3.65;;;;;;;8.10;76.86;99330.28;5030722;28;20075;-81
2022/12/28 05:56:44;;;;;;;5.82;3.28;;;;;;;8.11;76.81;99318.84;5029849;28;20144;-80
2022/12/28 05:59:12;;;;;;;4.57;3.83;;;;;;;8.13;76.98;99319.59;5012826;28;20096;-82
2022/12/28 06:01:41;;;;;;;4.38;3.70;;;;;;;8.15;76.85;99315.97;5030531;28;20475;-82
2022/12/28 06:04:20;;;;;;;5.20;3.35;;;;;;;8.18;77.43;99315.81;5030006;28;20053;-81
2022/12/28 06:06:47;;;;;;;3.85;3.55;;;;;;;8.21;76.88;99299.06;5012854;28;20434;-82
2022/12/28 06:09:14;;;;;;;4.93;3.85;;;;;;;8.25;76.73;99305.84;5030417;28;20116;-80
2022/12/28 06:11:41;;;;;;;6.13;4.00;;;;;;;8.23;77.16;99312.09;5030948;28;20136;-81
2022/12/28 06:14:08;;;;;;;4.30;3.90;;;;;;;8.24;77.25;99301.53;5034219;28;20506;-81
2022/12/28 06:16:40;;;;;;;4.75;4.25;;;;;;;8.24;77.60;99319.88;5034021;28;20057;-81
2022/12/28 06:19:13;;;;;;;4.47;4.03;;;;;;;8.27;77.48;99321.50;5034037;28;20402;-80
2022/12/28 06:21:40;;;;;;;;;;;;;;;8.30;78.12;99311.66;5034895;28;20053;-81
2022/12/28 06:24:08;;;;;;;5.20;4.55;;;;;;;8.35;76.93;99319.28;5034253;28;20361;-80
2022/12/28 06:26:36;;;;;;;5.00;4.50;;;;;;;8.37;77.13;99314.78;5033962;28;20053;-82
2022/12/28 06:29:03;;;;;;;4.70;4.30;;;;;;;8.37;77.19;99327.09;5034193;28;20112;-79
2022/12/28 06:31:33;;;;;;;5.93;4.32;;;;;;;8.38;77.22;99316.50;5033872;28;20087;-81
2022/12/28 06:34:02;;;;;;;4.80;4.40;;;;;;;8.40;77.41;99322.50;5034060;28;20050;-82
2022/12/28 06:36:40;;;;;;;5.57;5.03;;;;;;;8.39;77.73;99317.34;5033624;28;20109;-81
2022/12/28 06:39:09;;;;;;;6.20;4.50;;;;;;;8.43;77.50;99313.63;5033878;28;20523;-81
2022/12/28 06:41:36;;;;;;;5.40;4.90;;;;;;;8.45;77.63;99328.34;5031274;28;20136;-81
2022/12/28 06:44:08;;;;;;;4.82;4.35;;;;;;;8.47;77.49;99321.25;5033317;28;20096;-82
2022/12/28 06:46:35;;;;;;;5.85;5.00;;;;;;;8.50;77.71;99308.88;5033265;28;20798;-77
2022/12/28 06:49:02;;;;;;;5.25;4.75;;;;;;;8.52;77.93;99315.72;5032543;28;20091;-79
2022/12/28 06:51:35;;;;;;;6.10;4.68;;;;;;;8.54;78.09;99305.19;5032609;28;20435;-80
2022/12/28 06:54:02;;;;;;;5.03;4.50;;;;;;;8.56;77.90;99309.41;5026265;28;20058;-82
2022/12/28 06:56:30;;;;;;;5.47;4.80;;;;;;;8.58;77.72;99323.31;5032212;28;20053;-79
2022/12/28 06:58:58;;;;;;;4.57;4.18;;;;;;;8.62;77.71;99308.22;5025687;28;20060;-81
2022/12/28 07:01:32;;;;;;;4.63;4.22;;;;;;;8.63;78.01;99309.09;5032618;28;20151;-77
2022/12/28 07:04:01;;;;;;;5.97;4.32;;;;;;;8.66;77.92;99294.00;5028419;28;20414;-81
2022/12/28 07:06:29;;;;;;;4.72;4.32;;;;;;;8.69;78.02;99301.72;5032339;28;20093;-80
2022/12/28 07:09:00;;;;;;;5.55;4.97;;;;;;;8.68;77.96;99292.13;5032179;28;20064;-80
2022/12/28 07:11:27;;;;;;;5.05;4.53;;;;;;;8.72;77.77;99301.50;5032299;28;20059;-79
2022/12/28 07:13:55;;;;;;;5.95;4.53;;;;;;;8.75;77.90;99291.78;5032642;28;20420;-80
2022/12/28 07:16:24;;;;;;;5.10;4.60;;;;;;;8.75;78.05;99302.28;5030420;28;21039;-79
2022/12/28 07:18:50;;;;;;;5.25;4.75;;;;;;;8.78;77.84;99291.63;5014640;28;20060;-80
2022/12/28 07:21:32;;;;;;;5.00;4.50;;;;;;;8.75;78.33;99302.28;5026026;28;20077;-80
2022/12/28 07:23:59;;;;;;;5.30;4.82;;;;;;;8.80;78.00;99308.97;5007845;28;20141;-81
2022/12/28 07:26:29;;;;;;;5.18;4.63;;;;;;;8.80;78.39;99289.75;5032674;28;20076;-80
2022/12/28 07:28:57;;;;;;;5.65;4.53;;;;;;;8.82;78.49;99312.34;5015266;28;20065;-81
2022/12/28 07:31:27;;;;;;;5.10;4.32;;;;;;;8.83;78.45;99300.06;5032843;28;20049;-80
2022/12/28 07:33:56;;;;;;;4.60;4.20;;;;;;;8.85;78.61;99301.69;5033136;28;20148;-80
2022/12/28 07:36:25;;;;;;;4.53;4.03;;;;;;;8.88;78.54;99297.16;5032265;28;20053;-81
2022/12/28 07:38:51;;;;;;;4.55;4.13;;;;;;;8.90;78.51;99290.91;5015077;28;20136;-80
2022/12/28 07:41:21;;;;;;;6.70;4.60;;;;;;;8.90;78.61;99295.31;5032588;28;20053;-79
2022/12/28 07:43:49;;;;;;;5.97;4.10;;;;;;;8.92;78.89;99306.56;5032998;28;20085;-82
2022/12/28 07:46:18;;;;;;;4.18;3.80;;;;;;;8.94;78.70;99302.91;5032540;28;20045;-80
2022/12/28 07:48:46;;;;;;;4.32;3.53;;;;;;;8.98;78.39;99293.94;5032205;28;20540;-80
2022/12/28 07:51:21;;;;;;;3.78;3.38;;;;;;;8.99;78.58;99290.38;5015161;28;20055;-80
2022/12/28 07:53:49;;;;;;;3.63;3.33;;;;;;;9.03;78.54;99300.69;5030624;28;20049;-80
2022/12/28 07:56:17;;;;;;;3.80;3.42;;;;;;;9.05;78.61;99306.72;5030348;28;20556;-81
2022/12/28 07:58:49;;;;;;;3.47;3.05;;;;;;;9.06;79.03;99308.41;5029169;28;20498;-81
2022/12/28 08:01:16;;;;;;;3.70;3.10;;;;;;;9.09;78.84;99306.44;5013819;28;20053;-79
2022/12/28 08:03:43;;;;;;;3.35;2.90;;;;;;;9.11;78.94;99317.72;5123186;23;20093;-80
2022/12/28 08:06:18;;;;;;;3.17;2.88;;;;;;;9.12;79.08;99323.78;5020143;28;20507;-81
2022/12/28 08:08:47;;;;;;;3.10;2.80;;;;;;;9.15;78.64;99318.38;5014877;28;20136;-80
2022/12/28 08:11:17;;;;;;;2.63;2.35;;;;;;;9.17;79.07;99311.25;5017924;28;20198;-81
2022/12/28 08:13:46;;;;;;;3.88;2.67;;;;;;;9.21;78.87;99319.78;5022291;28;20062;-80
2022/12/28 08:16:14;;;;;;;3.03;2.72;;;;;;;9.22;78.91;99317.06;5031945;28;20057;-79
2022/12/28 08:18:41;;;;;;;4.15;2.80;;;;;;;9.25;78.87;99306.41;5012446;28;20492;-80
2022/12/28 08:21:14;;;;;;;4.38;2.60;;;;;;;9.27;78.81;99319.41;5020202;28;20574;-80
2022/12/28 08:23:41;;;;;;;4.45;2.33;;;;;;;9.32;78.75;99319.16;5012926;28;20058;-80
2022/12/28 08:26:26;;;;;;;3.65;2.78;;;;;;;9.31;78.98;99314.84;5014099;28;20137;-80
2022/12/28 08:28:55;;;;;;;3.50;2.63;;;;;;;9.35;78.75;99317.19;5031894;28;20088;-80
2022/12/28 08:31:28;;;;;;;3.13;2.70;;;;;;;9.34;79.18;99314.66;5031704;28;20103;-80
2022/12/28 08:33:56;;;;;;;3.80;2.60;;;;;;;9.37;78.91;99314.47;5031593;28;20156;-80
2022/12/28 08:36:22;;;;;;;2.70;2.25;;;;;;;9.38;79.11;99300.41;5030660;28;20081;-80
2022/12/28 08:38:49;;;;;;;3.85;2.85;;;;;;;9.39;79.13;99317.88;5030997;28;20049;-80
2022/12/28 08:41:20;;;;;;;3.03;2.53;;;;;;;9.41;79.24;99302.03;4993781;28;20054;-80
2022/12/28 08:43:47;;;;;;;3.88;2.60;;;;;;;9.44;79.11;99293.94;5011938;28;20053;-80
2022/12/28 08:46:17;;;;;;;2.78;2.38;;;;;;;9.44;79.06;99297.41;5011190;28;20104;-80
2022/12/28 08:48:44;;;;;;;4.00;2.75;;;;;;;9.47;79.02;99297.25;4993854;28;20136;-80
2022/12/28 08:51:15;;;;;;;3.38;2.60;;;;;;;9.47;79.23;99297.25;5011181;28;20065;-80
2022/12/28 08:53:42;;;;;;;3.60;2.22;;;;;;;9.52;79.23;99312.72;5011009;28;20062;-80
2022/12/28 08:56:23;;;;;;;3.25;2.40;;;;;;;9.49;78.97;99297.13;4993395;28;20142;-80
2022/12/28 08:58:50;;;;;;;2.70;2.28;;;;;;;9.55;79.19;99294.16;5011176;28;20057;-80
2022/12/28 09:01:20;;;;;;;4.35;2.30;;;;;;;9.57;79.17;99294.06;5011127;28;20562;-80
2022/12/28 09:03:49;;;;;;;3.92;2.30;;;;;;;9.58;79.21;99311.50;5010886;28;20530;-80
2022/12/28 09:06:19;;;;;;;2.58;2.10;;;;;;;9.60;79.18;99296.47;5010942;28;20108;-80
2022/12/28 09:08:50;;;;;;;3.58;2.03;;;;;;;9.61;79.07;99300.81;5010889;28;20503;-80
2022/12/28 09:11:33;;;;;;;2.70;2.22;;;;;;;9.64;79.20;99300.63;5011197;28;20145;-80
2022/12/28 09:14:00;;;;;;;2.58;2.25;;;;;;;9.64;79.12;99298.84;5010941;28;20419;-80
2022/12/28 09:16:27;;;;;;;4.32;2.70;;;;;;;9.67;79.21;99315.34;5010504;28;20470;-80
2022/12/28 09:18:58;;;;;;;5.78;2.15;;;;;;;9.67;79.16;99299.56;5010967;28;20181;-80
2022/12/28 09:21:31;;;;;;;3.25;2.47;;;;;;;9.67;79.12;99305.69;5010923;28;20141;-80
2022/12/28 09:23:58;;;;;;;2.20;2.00;;;;;;;9.69;79.33;99303.84;5010665;28;20054;-80
2022/12/28 09:26:30;;;;;;;2.88;2.20;;;;;;;9.72;79.32;99314.13;5010705;28;20062;-80
2022/12/28 09:28:59;;;;;;;2.73;2.10;;;;;;;9.72;79.17;99302.81;5010624;28;20050;-80
2022/12/28 09:31:28;;;;;;;2.45;2.05;;;;;;;9.73;79.31;99302.72;5010747;28;20420;-80
2022/12/28 09:33:57;;;;;;;2.35;2.15;;;;;;;9.73;79.55;99307.97;5010967;28;20061;-80
2022/12/28 09:36:44;;;;;;;2.53;2.17;;;;;;;9.74;79.31;99321.94;5010285;28;20116;-80
2022/12/28 09:39:17;;;;;;;3.00;2.15;;;;;;;9.75;79.33;99308.69;5010821;28;20442;-80
2022/12/28 09:41:47;;;;;;;3.80;2.15;;;;;;;9.75;79.38;99302.59;4993062;28;20085;-80
2022/12/28 09:44:25;;;;;;;5.63;2.10;;;;;;;9.78;79.45;99305.03;4993086;28;20065;-80
2022/12/28 09:47:00;;;;;;;3.28;2.20;;;;;;;9.79;79.28;99314.59;5010171;28;20054;-80
2022/12/28 09:49:42;;;;;;;2.33;2.10;;;;;;;9.78;79.32;99310.28;5010334;28;20145;-80
2022/12/28 09:52:25;;;;;;;2.92;2.17;;;;;;;9.78;79.41;99313.78;5010382;28;20802;-80
2022/12/28 09:54:53;;;;;;;2.10;1.80;;;;;;;9.82;79.40;99310.94;5010417;28;20116;-80
2022/12/28 09:57:20;;;;;;;2.03;1.85;;;;;;;9.81;79.33;99291.72;5010219;28;20085;-80
2022/12/28 09:59:48;;;;;;;2.17;1.65;;;;;;;9.85;79.48;99297.63;5010207;28;20054;-80
2022/12/28 10:02:28;;;;;;;1.92;1.63;;;;;;;9.81;79.34;99299.59;5010079;28;20115;-80
2022/12/28 10:04:55;;;;;;;2.30;1.90;;;;;;;9.86;79.29;99291.41;5010126;28;20066;-80
2022/12/28 10:07:22;;;;;;;2.95;1.80;;;;;;;9.88;79.70;99292.19;5010062;28;20444;-80
2022/12/28 10:09:48;;;;;;;1.80;1.70;;;;;;;9.87;79.42;99293.97;5010062;28;20049;-80
2022/12/28 10:12:23;;;;;;;2.28;1.63;;;;;;;9.88;79.24;99276.41;5010074;28;20062;-80
2022/12/28 10:14:52;;;;;;;2.13;1.52;;;;;;;9.90;79.58;99279.78;5009962;28;20149;-80
2022/12/28 10:17:29;;;;;;;2.55;1.83;;;;;;;9.93;79.55;99284.84;4992448;28;20492;-80
2022/12/28 10:19:57;;;;;;;3.92;2.00;;;;;;;9.95;79.43;99276.88;5010232;28;20140;-80
2022/12/28 10:22:34;;;;;;;2.13;1.92;;;;;;;9.94;79.56;99286.53;5010234;28;20089;-80
2022/12/28 10:25:00;;;;;;;3.58;1.73;;;;;;;9.96;79.47;99278.56;4992593;28;20081;-80
2022/12/28 10:27:30;;;;;;;3.10;1.80;;;;;;;9.95;79.30;99277.72;4992441;28;20128;-80
2022/12/28 10:30:00;;;;;;;2.13;1.75;;;;;;;9.95;79.29;99267.22;5010237;28;20097;-80
2022/12/28 10:32:46;;;;;;;3.17;1.88;;;;;;;9.98;79.38;99266.19;4992533;28;20069;-80
2022/12/28 10:35:21;;;;;;;2.10;1.90;;;;;;;10.00;79.53;99265.13;4992424;28;20057;-80
2022/12/28 10:37:48;;;;;;;2.08;1.70;;;;;;;10.05;79.84;99259.56;5009835;28;20078;-80
2022/12/28 10:40:25;;;;;;;2.50;1.73;;;;;;;10.02;79.36;99257.97;5010134;28;20108;-80
2022/12/28 10:42:54;;;;;;;1.45;1.35;;;;;;;10.08;79.84;99258.53;5010187;28;20172;-80
2022/12/28 10:45:44;;;;;;;4.82;1.80;;;;;;;10.05;79.03;99270.09;5009902;28;20077;-80
2022/12/28 10:48:24;;;;;;;1.45;1.35;;;;;;;10.10;79.27;99269.81;5009787;28;20052;-79
2022/12/28 10:50:57;;;;;;;1.70;1.60;;;;;;;10.11;79.09;99263.59;5010338;28;20432;-80
2022/12/28 10:53:32;;;;;;;2.38;1.60;;;;;;;10.09;79.04;99261.06;5010270;28;20092;-80
2022/12/28 10:56:04;;;;;;;2.75;1.65;;;;;;;10.10;79.18;99259.28;5009960;28;20397;-80
2022/12/28 10:58:32;;;;;;;2.10;1.40;;;;;;;10.15;79.52;99267.72;5011400;28;20061;-80
2022/12/28 11:01:11;;;;;;;1.65;1.55;;;;;;;10.12;79.07;99249.50;5013668;28;20070;-80
2022/12/28 11:03:45;;;;;;;1.50;1.40;;;;;;;10.14;79.19;99253.72;5013389;28;20472;-80
2022/12/28 11:06:20;;;;;;;2.45;1.38;;;;;;;10.15;79.24;99251.94;5013385;28;20106;-80
2022/12/28 11:09:20;;;;;;;1.95;1.50;;;;;;;10.13;78.57;99244.16;5013387;28;20065;-80
2022/12/28 11:11:49;;;;;;;1.60;1.50;;;;;;;10.19;79.43;99242.06;5013347;28;20050;-80
2022/12/28 11:14:33;;;;;;;2.28;1.73;;;;;;;10.14;78.92;99247.63;5013504;28;20050;-80
2022/12/28 11:17:26;;;;;;;2.28;1.52;;;;;;;10.13;78.87;99238.06;5012994;28;20066;-80
2022/12/28 11:20:03;;;;;;;1.48;1.38;;;;;;;10.14;79.04;99231.84;5013241;28;20108;-80
2022/12/28 11:22:31;;;;;;;2.92;1.58;;;;;;;10.17;79.38;99223.78;5013102;28;20483;-80
2022/12/28 11:24:59;;;;;;;1.80;1.50;;;;;;;10.16;79.51;99229.97;5012971;28;20566;-80
2022/12/28 11:27:26;;;;;;;1.80;1.20;;;;;;;10.17;79.66;99226.41;5008642;28;20050;-81
2022/12/28 11:29:54;;;;;;;3.33;2.03;;;;;;;10.14;79.48;99222.16;5019806;28;20053;-80
2022/12/28 11:32:25;;;;;;;1.63;1.52;;;;;;;10.14;79.49;99216.91;5007039;28;20072;-80
2022/12/28 11:34:54;;;;;;;2.08;1.88;;;;;;;10.15;79.53;99212.50;5032732;28;20084;-80
2022/12/28 11:37:20;;;;;;;2.55;2.03;;;;;;;10.14;79.81;99223.97;5022602;28;20061;-81
2022/12/28 11:39:48;;;;;;;3.38;1.63;;;;;;;10.16;79.58;99224.69;4995760;28;20057;-81
2022/12/28 11:42:33;;;;;;;1.73;1.55;;;;;;;10.13;79.45;99219.66;5012446;28;20066;-81
2022/12/28 11:45:35;;;;;;;2.75;1.70;;;;;;;10.14;79.55;99213.44;5012597;28;20061;-80
2022/12/28 11:48:37;;;;;;;2.05;1.80;;;;;;;10.13;79.38;99211.78;5012324;28;20493;-81
2022/12/28 11:51:05;;;;;;;2.58;1.80;;;;;;;10.18;79.88;99209.69;4980787;28;20085;-81
2022/12/28 11:53:31;;;;;;;2.20;2.03;;;;;;;10.19;80.03;99207.88;5012522;28;20085;-80
2022/12/28 11:56:07;;;;;;;2.38;2.10;;;;;;;10.16;79.71;99206.28;5012526;28;20120;-80
2022/12/28 11:58:57;;;;;;;2.40;1.83;;;;;;;10.16;79.90;99196.63;5012263;28;20467;-81
2022/12/28 12:01:27;;;;;;;3.28;2.05;;;;;;;10.20;79.93;99192.00;4994852;28;20057;-81
2022/12/28 12:03:56;;;;;;;2.17;1.77;;;;;;;10.22;80.00;99195.38;5012548;28;20116;-80
2022/12/28 12:06:45;;;;;;;2.10;1.90;;;;;;;10.19;79.44;99199.97;5010154;28;20053;-81
2022/12/28 12:09:21;;;;;;;2.10;1.95;;;;;;;10.19;79.44;99190.31;5004511;28;20051;-80
2022/12/28 12:11:49;;;;;;;2.25;2.05;;;;;;;10.21;79.91;99185.78;5005335;28;20054;-80
2022/12/28 12:14:22;;;;;;;2.35;1.98;;;;;;;10.19;79.94;99185.06;5032033;28;20053;-81
2022/12/28 12:17:01;;;;;;;2.35;2.15;;;;;;;10.20;79.63;99185.91;5031854;28;20099;-81
2022/12/28 12:19:33;;;;;;;3.40;2.28;;;;;;;10.22;79.95;99179.59;5005139;28;20081;-81
2022/12/28 12:22:18;;;;;;;3.35;2.08;;;;;;;10.17;79.62;99171.19;5016213;28;20123;-81
2022/12/28 12:24:53;;;;;;;2.08;1.88;;;;;;;10.22;80.09;99179.59;5023494;28;20087;-80